createdAt,value
2024-04-10T00:00:31.776Z,1.37
2024-04-10T00:02:59.891Z,1.23
2024-04-10T00:05:28.201Z,1.67
2024-04-10T00:07:56.700Z,1.87
2024-04-10T00:10:24.964Z,2.10
2024-04-10T00:12:52.991Z,1.50
2024-04-10T00:15:21.275Z,1.97
2024-04-10T00:17:52.854Z,1.47
2024-04-10T00:20:21.770Z,1.20
2024-04-10T00:22:49.681Z,2.83
2024-04-10T00:25:17.685Z,1.50
2024-04-10T00:27:46.389Z,2.53
2024-04-10T00:30:14.661Z,2.37
2024-04-10T00:32:42.773Z,1.77
2024-04-10T00:35:11.063Z,1.83
2024-04-10T00:37:40.032Z,2.57
2024-04-10T00:40:10.680Z,2.47
2024-04-10T00:42:38.956Z,2.80
2024-04-10T00:45:09.812Z,2.17
2024-04-10T00:47:38.061Z,1.50
2024-04-10T00:50:08.586Z,1.80
2024-04-10T00:52:36.679Z,1.13
2024-04-10T00:55:05.703Z,2.47
2024-04-10T00:57:33.876Z,2.70
2024-04-10T01:00:01.921Z,2.27
2024-04-10T01:02:33.394Z,2.03
2024-04-10T01:05:02.044Z,2.20
2024-04-10T01:07:30.318Z,2.50
2024-04-10T01:09:58.762Z,2.63
2024-04-10T01:12:30.220Z,3.13
2024-04-10T01:14:58.412Z,2.23
2024-04-10T01:17:26.937Z,2.00
2024-04-10T01:19:59.479Z,2.60
2024-04-10T01:22:27.655Z,1.43
2024-04-10T01:24:56.036Z,1.30
2024-04-10T01:27:23.912Z,2.20
2024-04-10T01:29:52.136Z,2.53
2024-04-10T01:32:20.417Z,2.20
2024-04-10T01:34:49.033Z,1.60
2024-04-10T01:37:19.695Z,1.40
2024-04-10T01:39:47.894Z,1.70
2024-04-10T01:42:16.280Z,1.43
2024-04-10T01:44:44.817Z,1.33
2024-04-10T01:47:13.384Z,0.90
2024-04-10T01:49:41.623Z,1.13
2024-04-10T01:52:10.363Z,1.00
2024-04-10T01:54:39.078Z,1.07
2024-04-10T01:57:07.225Z,1.33
2024-04-10T01:59:35.023Z,2.20
2024-04-10T02:02:03.798Z,1.27
2024-04-10T02:04:33.183Z,1.30
2024-04-10T02:07:01.448Z,0.50
2024-04-10T02:09:29.796Z,1.20
2024-04-10T02:11:58.674Z,2.23
2024-04-10T02:14:27.220Z,2.60
2024-04-10T02:16:55.587Z,2.03
2024-04-10T02:19:23.702Z,1.90
2024-04-10T02:21:54.716Z,2.53
2024-04-10T02:24:23.035Z,0.80
2024-04-10T02:26:51.681Z,0.80
2024-04-10T02:29:20.727Z,1.17
2024-04-10T02:31:49.036Z,1.47
2024-04-10T02:34:17.726Z,1.27
2024-04-10T02:36:45.639Z,2.47
2024-04-10T02:39:16.240Z,1.27
2024-04-10T02:41:44.508Z,2.07
2024-04-10T02:44:12.935Z,2.20
2024-04-10T02:46:41.219Z,2.53
2024-04-10T02:49:09.500Z,1.10
2024-04-10T02:51:37.653Z,1.93
2024-04-10T02:54:06.091Z,1.40
2024-04-10T02:56:34.731Z,2.13
2024-04-10T02:59:02.967Z,2.20
2024-04-10T03:01:31.515Z,1.67
2024-04-10T03:03:59.798Z,2.10
2024-04-10T03:06:29.002Z,1.27
2024-04-10T03:08:57.317Z,1.73
2024-04-10T03:11:26.605Z,2.03
2024-04-10T03:13:54.556Z,2.93
2024-04-10T03:16:23.211Z,3.77
2024-04-10T03:18:51.555Z,1.43
2024-04-10T03:21:20.051Z,3.43
2024-04-10T03:23:48.546Z,1.07
2024-04-10T03:26:17.019Z,1.70
2024-04-10T03:28:45.011Z,1.37
2024-04-10T03:31:13.752Z,1.10
2024-04-10T03:33:42.099Z,0.90
2024-04-10T03:36:10.408Z,2.13
2024-04-10T03:38:38.677Z,1.50
2024-04-10T03:41:07.281Z,1.63
2024-04-10T03:43:35.335Z,2.13
2024-04-10T03:46:03.717Z,1.10
2024-04-10T03:48:31.818Z,2.07
2024-04-10T03:51:04.162Z,1.83
2024-04-10T03:53:32.548Z,2.13
2024-04-10T03:56:00.634Z,1.53
2024-04-10T03:58:28.935Z,1.37
2024-04-10T04:00:57.106Z,1.07
2024-04-10T04:03:24.984Z,2.37
2024-04-10T04:05:53.300Z,1.47
2024-04-10T04:08:22.554Z,1.53
2024-04-10T04:10:50.641Z,1.30
2024-04-10T04:13:18.623Z,1.67
2024-04-10T04:15:47.047Z,1.60
2024-04-10T04:18:15.115Z,1.67
2024-04-10T04:20:43.124Z,1.43
2024-04-10T04:23:11.423Z,1.53
2024-04-10T04:25:40.032Z,1.63
2024-04-10T04:28:08.195Z,2.10
2024-04-10T04:30:37.505Z,1.80
2024-04-10T04:33:06.553Z,3.07
2024-04-10T04:35:35.541Z,1.00
2024-04-10T04:38:03.434Z,2.00
2024-04-10T04:40:32.518Z,1.40
2024-04-10T04:43:01.912Z,2.13
2024-04-10T04:45:30.657Z,1.57
2024-04-10T04:47:59.200Z,2.43
2024-04-10T04:50:27.026Z,1.20
2024-04-10T04:52:55.329Z,4.23
2024-04-10T04:55:23.490Z,2.67
2024-04-10T04:57:52.258Z,1.40
2024-04-10T05:00:23.786Z,3.23
2024-04-10T05:02:51.943Z,1.40
2024-04-10T05:05:20.442Z,1.63
2024-04-10T05:07:49.763Z,1.17
2024-04-10T05:10:17.986Z,1.77
2024-04-10T05:12:45.934Z,1.63
2024-04-10T05:15:14.729Z,1.40
2024-04-10T05:17:43.402Z,2.30
2024-04-10T05:20:17.761Z,2.43
2024-04-10T05:22:46.218Z,1.70
2024-04-10T05:25:14.293Z,2.03
2024-04-10T05:27:45.190Z,2.47
2024-04-10T05:30:14.605Z,1.33
2024-04-10T05:32:42.752Z,1.80
2024-04-10T05:35:14.468Z,2.90
2024-04-10T05:37:43.463Z,1.37
2024-04-10T05:40:15.303Z,3.07
2024-04-10T05:42:43.684Z,1.87
2024-04-10T05:45:14.080Z,2.50
2024-04-10T05:47:42.528Z,1.67
2024-04-10T05:50:11.077Z,1.17
2024-04-10T05:52:41.184Z,1.93
2024-04-10T05:55:10.146Z,2.40
2024-04-10T05:57:38.776Z,2.40
2024-04-10T06:00:11.279Z,2.60
2024-04-10T06:02:44.370Z,3.17
2024-04-10T06:05:12.404Z,2.30
2024-04-10T06:07:44.912Z,2.40
2024-04-10T06:10:13.118Z,1.57
2024-04-10T06:12:41.583Z,2.93
2024-04-10T06:15:10.192Z,2.00
2024-04-10T06:17:39.501Z,2.20
2024-04-10T06:20:12.675Z,1.70
2024-04-10T06:22:41.634Z,1.93
2024-04-10T06:25:09.044Z,3.47
2024-04-10T06:27:37.684Z,1.73
2024-04-10T06:30:09.216Z,2.37
2024-04-10T06:32:37.568Z,3.23
2024-04-10T06:35:07.088Z,3.40
2024-04-10T06:37:35.311Z,1.60
2024-04-10T06:40:03.635Z,0.73
2024-04-10T06:42:32.452Z,0.60
2024-04-10T06:45:01.088Z,1.47
2024-04-10T06:47:29.472Z,1.43
2024-04-10T06:49:57.518Z,0.57
2024-04-10T06:52:26.264Z,1.17
2024-04-10T06:54:54.128Z,1.40
2024-04-10T06:57:22.331Z,0.83
2024-04-10T06:59:50.569Z,4.03
2024-04-10T07:02:19.110Z,1.20
2024-04-10T07:04:52.147Z,1.73
2024-04-10T07:07:21.130Z,1.27
2024-04-10T07:09:51.089Z,1.10
2024-04-10T07:12:19.864Z,0.57
2024-04-10T07:14:48.274Z,0.80
2024-04-10T07:17:16.838Z,0.20
2024-04-10T07:19:45.148Z,0.40
2024-04-10T07:22:13.205Z,0.40
2024-04-10T07:24:41.966Z,0.40
2024-04-10T07:27:10.197Z,0.27
2024-04-10T07:29:38.735Z,0.83
2024-04-10T07:32:07.088Z,0.10
2024-04-10T07:34:35.134Z,0.33
2024-04-10T07:37:04.899Z,0.20
2024-04-10T07:39:32.591Z,0.30
2024-04-10T07:42:00.991Z,0.53
2024-04-10T07:44:29.975Z,0.60
2024-04-10T07:46:58.348Z,0.50
2024-04-10T07:49:26.381Z,0.30
2024-04-10T07:51:55.014Z,0.33
2024-04-10T07:54:22.959Z,0.30
2024-04-10T07:56:51.398Z,0.30
2024-04-10T07:59:20.268Z,0.30
2024-04-10T08:01:49.120Z,0.50
2024-04-10T08:04:17.679Z,0.40
2024-04-10T08:06:45.901Z,1.07
2024-04-10T08:09:13.690Z,0.10
2024-04-10T08:11:41.591Z,0.17
2024-04-10T08:14:09.940Z,0.33
2024-04-10T08:16:37.995Z,1.17
2024-04-10T08:19:08.337Z,0.20
2024-04-10T08:21:42.537Z,0.20
2024-04-10T08:24:11.118Z,0.20
2024-04-10T08:26:40.010Z,0.10
2024-04-10T08:29:11.069Z,0.40
2024-04-10T08:31:38.998Z,0.27
2024-04-10T08:34:07.506Z,0.17
2024-04-10T08:36:35.785Z,0.40
2024-04-10T08:39:06.088Z,0.67
2024-04-10T08:41:33.472Z,0.30
2024-04-10T08:44:01.874Z,0.80
2024-04-10T08:46:30.313Z,0.40
2024-04-10T08:48:58.949Z,0.33
2024-04-10T08:51:28.489Z,0.20
2024-04-10T08:53:56.819Z,0.23
2024-04-10T08:56:25.249Z,0.40
2024-04-10T08:58:55.303Z,0.30
2024-04-10T09:01:29.290Z,0.53
2024-04-10T09:03:58.360Z,0.27
2024-04-10T09:06:26.626Z,0.30
2024-04-10T09:09:01.435Z,0.20
2024-04-10T09:11:29.966Z,0.20
2024-04-10T09:14:04.292Z,0.40
2024-04-10T09:16:32.568Z,0.13
2024-04-10T09:19:20.069Z,0.33
2024-04-10T09:22:07.691Z,0.40
2024-04-10T09:24:36.242Z,0.30
2024-04-10T09:27:10.836Z,0.40
2024-04-10T09:29:38.646Z,0.30
2024-04-10T09:32:09.264Z,0.30
2024-04-10T09:34:37.706Z,0.47
2024-04-10T09:37:07.778Z,0.47
2024-04-10T09:39:37.364Z,0.20
2024-04-10T09:42:06.026Z,0.30
2024-04-10T09:44:35.075Z,0.30
2024-04-10T09:47:03.626Z,0.17
2024-04-10T09:49:43.311Z,0.23
2024-04-10T09:52:12.380Z,0.27
2024-04-10T09:54:40.523Z,0.30
2024-04-10T09:57:10.832Z,1.50
2024-04-10T09:59:39.111Z,0.17
2024-04-10T10:02:30.186Z,0.20
2024-04-10T10:05:02.365Z,0.53
2024-04-10T10:07:31.062Z,0.23
2024-04-10T10:10:09.130Z,0.10
2024-04-10T10:12:38.354Z,0.57
2024-04-10T10:15:09.982Z,0.93
2024-04-10T10:17:50.142Z,0.23
2024-04-10T10:20:25.665Z,0.17
2024-04-10T10:23:10.497Z,0.23
2024-04-10T10:25:41.483Z,0.22
2024-04-10T10:28:10.143Z,1.03
2024-04-10T10:30:37.847Z,0.43
2024-04-10T10:33:07.737Z,0.30
2024-04-10T10:35:36.502Z,0.23
2024-04-10T10:38:08.901Z,0.00
2024-04-10T10:40:36.827Z,0.33
2024-04-10T10:43:09.371Z,0.40
2024-04-10T10:45:37.785Z,0.50
2024-04-10T10:48:08.887Z,0.23
2024-04-10T10:50:36.767Z,0.40
2024-04-10T10:53:04.546Z,0.17
2024-04-10T10:55:33.136Z,0.37
2024-04-10T10:58:07.042Z,0.30
2024-04-10T11:00:35.807Z,0.20
2024-04-10T11:03:16.806Z,0.50
2024-04-10T11:05:52.810Z,0.40
2024-04-10T11:08:24.938Z,0.27
2024-04-10T11:10:53.587Z,0.30
2024-04-10T11:13:22.285Z,0.50
2024-04-10T11:15:50.885Z,0.10
2024-04-10T11:18:19.655Z,0.30
2024-04-10T11:20:48.654Z,0.20
2024-04-10T11:23:17.256Z,0.13
2024-04-10T11:25:44.770Z,0.33
2024-04-10T11:28:13.058Z,0.30
2024-04-10T11:30:41.251Z,0.47
2024-04-10T11:33:12.825Z,1.17
2024-04-10T11:35:42.583Z,0.40
2024-04-10T11:38:10.579Z,0.30
2024-04-10T11:40:39.281Z,0.50
2024-04-10T11:43:07.176Z,0.63
2024-04-10T11:45:36.031Z,0.17
2024-04-10T11:48:09.327Z,0.40
2024-04-10T11:50:39.314Z,0.33
2024-04-10T11:53:08.105Z,0.20
2024-04-10T11:55:35.906Z,0.10
2024-04-10T11:58:05.834Z,0.10
2024-04-10T12:00:35.417Z,0.30
2024-04-10T12:03:04.118Z,0.30
2024-04-10T12:05:32.248Z,0.10
2024-04-10T12:08:08.472Z,0.20
2024-04-10T12:10:38.367Z,0.57
2024-04-10T12:13:06.751Z,0.37
2024-04-10T12:15:38.136Z,0.40
2024-04-10T12:18:07.093Z,0.67
2024-04-10T12:20:35.527Z,0.10
2024-04-10T12:23:04.036Z,0.37
2024-04-10T12:25:32.445Z,0.70
2024-04-10T12:28:00.887Z,0.73
2024-04-10T12:30:29.152Z,0.97
2024-04-10T12:33:01.217Z,0.53
2024-04-10T12:35:48.044Z,0.63
2024-04-10T12:38:16.251Z,0.50
2024-04-10T12:40:44.797Z,0.30
2024-04-10T12:43:12.908Z,0.37
2024-04-10T12:45:41.136Z,0.17
2024-04-10T12:48:11.566Z,0.37
2024-04-10T12:50:39.886Z,0.60
2024-04-10T12:53:08.273Z,0.37
2024-04-10T12:55:37.850Z,0.93
2024-04-10T12:58:06.790Z,0.40
2024-04-10T13:00:35.077Z,0.50
2024-04-10T13:03:03.727Z,1.40
2024-04-10T13:05:32.090Z,0.37
2024-04-10T13:08:00.500Z,0.50
2024-04-10T13:10:28.458Z,0.27
2024-04-10T13:12:56.498Z,0.30
2024-04-10T13:15:25.795Z,0.73
2024-04-10T13:17:54.839Z,0.30
2024-04-10T13:20:24.588Z,0.47
2024-04-10T13:22:52.874Z,1.40
2024-04-10T13:25:21.821Z,0.10
2024-04-10T13:27:50.218Z,0.83
2024-04-10T13:30:18.061Z,0.10
2024-04-10T13:32:47.530Z,0.40
2024-04-10T13:35:16.175Z,0.20
2024-04-10T13:37:44.012Z,0.20
2024-04-10T13:40:14.835Z,0.13
2024-04-10T13:42:42.601Z,0.60
2024-04-10T13:45:12.075Z,0.63
2024-04-10T13:47:40.435Z,0.57
2024-04-10T13:50:10.073Z,0.17
2024-04-10T13:52:39.458Z,0.23
2024-04-10T13:55:08.613Z,0.53
2024-04-10T13:57:36.837Z,0.47
2024-04-10T14:00:12.176Z,0.63
2024-04-10T14:02:44.058Z,0.33
2024-04-10T14:05:12.609Z,0.10
2024-04-10T14:07:41.108Z,0.10
2024-04-10T14:10:10.760Z,1.03
2024-04-10T14:12:39.328Z,0.73
2024-04-10T14:15:09.138Z,0.00
2024-04-10T14:17:37.221Z,0.30
2024-04-10T14:20:12.061Z,0.20
2024-04-10T14:22:40.046Z,0.20
2024-04-10T14:25:09.708Z,0.10
2024-04-10T14:27:37.808Z,0.40
2024-04-10T14:30:07.991Z,0.70
2024-04-10T14:32:37.112Z,0.27
2024-04-10T14:35:10.876Z,0.27
2024-04-10T14:37:39.484Z,0.50
2024-04-10T14:40:11.631Z,1.27
2024-04-10T14:42:39.837Z,0.83
2024-04-10T14:45:11.621Z,0.67
2024-04-10T14:47:40.150Z,0.60
2024-04-10T14:50:09.589Z,0.90
2024-04-10T14:52:40.152Z,0.27
2024-04-10T14:55:09.158Z,0.37
2024-04-10T14:57:41.554Z,0.53
2024-04-10T15:00:12.517Z,0.60
2024-04-10T15:02:40.573Z,0.33
2024-04-10T15:05:08.982Z,0.60
2024-04-10T15:10:19.937Z,1.07
2024-04-10T15:12:49.665Z,0.47
2024-04-10T15:15:17.545Z,0.57
2024-04-10T15:17:45.364Z,1.47
2024-04-10T15:20:14.292Z,1.60
2024-04-10T15:22:42.687Z,0.20
2024-04-10T15:25:10.933Z,0.57
2024-04-10T15:27:39.212Z,0.70
2024-04-10T15:30:09.386Z,0.77
2024-04-10T15:32:38.275Z,0.20
2024-04-10T15:35:09.504Z,0.93
2024-04-10T15:37:38.076Z,0.50
2024-04-10T15:40:10.426Z,0.40
2024-04-10T15:42:38.903Z,0.27
2024-04-10T15:45:08.585Z,0.30
2024-04-10T15:47:42.075Z,0.73
2024-04-10T15:50:10.695Z,0.30
2024-04-10T15:52:49.884Z,0.27
2024-04-10T15:55:19.629Z,0.50
2024-04-10T15:57:47.991Z,0.20
2024-04-10T16:00:16.506Z,0.40
2024-04-10T16:02:45.938Z,0.07
2024-04-10T16:05:14.406Z,0.60
2024-04-10T16:07:43.051Z,0.37
2024-04-10T16:10:11.284Z,0.93
2024-04-10T16:12:39.612Z,0.73
2024-04-10T16:15:09.893Z,0.83
2024-04-10T16:17:38.360Z,0.07
2024-04-10T16:20:10.025Z,0.10
2024-04-10T16:22:38.348Z,0.60
2024-04-10T16:25:08.334Z,0.57
2024-04-10T16:27:38.908Z,0.63
2024-04-10T16:30:09.960Z,0.30
2024-04-10T16:32:38.989Z,0.50
2024-04-10T16:35:07.937Z,0.30
2024-04-10T16:39:08.642Z,0.23
2024-04-10T16:41:36.928Z,0.57
2024-04-10T16:44:05.968Z,0.20
2024-04-10T16:49:09.262Z,0.87
2024-04-10T16:51:38.145Z,0.73
2024-04-10T16:54:07.276Z,0.70
2024-04-10T16:56:35.294Z,0.60
2024-04-10T16:59:03.136Z,0.57
2024-04-10T17:01:31.392Z,0.60
2024-04-10T17:03:59.771Z,0.63
2024-04-10T17:06:27.730Z,0.73
2024-04-10T17:08:58.606Z,0.50
2024-04-10T17:11:26.839Z,0.10
2024-04-10T17:13:54.773Z,0.47
2024-04-10T17:16:22.817Z,0.40
2024-04-10T17:19:09.331Z,0.80
2024-04-10T17:22:06.697Z,0.40
2024-04-10T17:24:34.502Z,0.40
2024-04-10T17:27:02.642Z,0.40
2024-04-10T17:29:30.750Z,0.50
2024-04-10T17:31:58.957Z,0.30
2024-04-10T17:34:27.219Z,0.93
2024-04-10T17:36:58.615Z,0.20
2024-04-10T17:39:27.722Z,1.53
2024-04-10T17:41:56.327Z,0.20
2024-04-10T17:44:24.166Z,0.33
2024-04-10T17:46:53.212Z,0.37
2024-04-10T17:49:20.981Z,0.47
2024-04-10T17:51:48.891Z,0.20
2024-04-10T17:54:16.536Z,0.40
2024-04-10T17:56:44.583Z,0.67
2024-04-10T17:59:12.603Z,0.47
2024-04-10T18:01:40.392Z,0.60
2024-04-10T18:04:08.400Z,0.33
2024-04-10T18:06:39.448Z,1.70
2024-04-10T18:09:07.642Z,0.20
2024-04-10T18:11:36.251Z,0.17
2024-04-10T18:14:04.389Z,0.10
2024-04-10T18:16:32.762Z,0.20
2024-04-10T18:19:01.562Z,0.23
2024-04-10T18:21:29.329Z,0.20
2024-04-10T18:23:57.542Z,0.10
2024-04-10T18:26:28.085Z,0.20
2024-04-10T18:28:56.128Z,0.30
2024-04-10T18:31:23.798Z,0.37
2024-04-10T18:33:52.202Z,0.83
2024-04-10T18:36:20.357Z,0.10
2024-04-10T18:38:48.490Z,0.40
2024-04-10T18:41:16.768Z,0.40
2024-04-10T18:43:44.508Z,0.30
2024-04-10T18:46:15.464Z,0.53
2024-04-10T18:48:43.796Z,1.13
2024-04-10T18:51:16.586Z,0.47
2024-04-10T18:53:45.854Z,0.67
2024-04-10T18:56:14.594Z,0.87
2024-04-10T18:58:43.751Z,0.30
2024-04-10T19:01:11.711Z,0.80
2024-04-10T19:03:43.499Z,0.67
2024-04-10T19:06:14.094Z,0.97
2024-04-10T19:08:44.225Z,1.03
2024-04-10T19:11:14.043Z,0.70
2024-04-10T19:13:42.236Z,0.43
2024-04-10T19:16:10.557Z,0.60
2024-04-10T19:18:41.634Z,0.60
2024-04-10T19:21:10.056Z,0.43
2024-04-10T19:23:38.144Z,0.47
2024-04-10T19:26:06.005Z,1.10
2024-04-10T19:28:33.937Z,0.93
2024-04-10T19:31:05.922Z,0.30
2024-04-10T19:33:37.178Z,0.37
2024-04-10T19:36:08.212Z,1.10
2024-04-10T19:38:36.851Z,0.40
2024-04-10T19:41:26.933Z,0.57
2024-04-10T19:43:54.978Z,0.27
2024-04-10T19:46:22.671Z,0.27
2024-04-10T19:48:50.468Z,0.10
2024-04-10T19:51:20.297Z,0.30
2024-04-10T19:53:47.974Z,0.50
2024-04-10T19:56:17.019Z,0.30
2024-04-10T19:58:45.019Z,0.40
2024-04-10T20:01:12.762Z,0.77
2024-04-10T20:03:44.234Z,0.50
2024-04-10T20:06:12.884Z,0.40
2024-04-10T20:08:42.955Z,0.13
2024-04-10T20:11:11.967Z,0.33
2024-04-10T20:13:42.104Z,0.20
2024-04-10T20:16:10.870Z,0.70
2024-04-10T20:18:40.798Z,1.00
2024-04-10T20:21:09.635Z,0.20
2024-04-10T20:23:37.124Z,1.27
2024-04-10T20:26:05.345Z,0.70
2024-04-10T20:28:55.452Z,0.10
2024-04-10T20:31:23.536Z,0.30
2024-04-10T20:33:54.884Z,0.00
2024-04-10T20:36:23.028Z,0.30
2024-04-10T20:38:51.175Z,0.37
2024-04-10T20:41:20.625Z,0.53
2024-04-10T20:43:49.215Z,0.47
2024-04-10T20:46:17.857Z,0.23
2024-04-10T20:48:50.237Z,0.30
2024-04-10T20:51:18.608Z,0.50
2024-04-10T20:53:49.825Z,0.30
2024-04-10T20:56:17.767Z,0.00
2024-04-10T20:58:46.070Z,0.93
2024-04-10T21:01:15.029Z,1.10
2024-04-10T21:03:47.513Z,0.57
2024-04-10T21:06:17.043Z,0.20
2024-04-10T21:09:06.223Z,0.60
2024-04-10T21:11:55.374Z,1.00
2024-04-10T21:14:43.097Z,0.40
2024-04-10T21:17:30.389Z,0.20
2024-04-10T21:23:03.214Z,0.20
2024-04-10T21:25:50.492Z,0.40
2024-04-10T21:31:22.490Z,0.40
2024-04-10T21:34:09.772Z,0.28
2024-04-10T21:39:42.149Z,0.50
2024-04-10T21:42:28.353Z,0.30
2024-04-10T21:45:14.412Z,0.20
2024-04-10T21:48:01.400Z,0.33
2024-04-10T21:50:48.298Z,0.30
2024-04-10T21:53:34.341Z,0.50
2024-04-10T21:56:25.525Z,0.83
2024-04-10T21:59:13.604Z,0.40
2024-04-10T22:02:06.419Z,0.30
2024-04-10T22:04:57.325Z,0.57
2024-04-10T22:07:46.218Z,0.10
2024-04-10T22:10:14.186Z,0.37
2024-04-10T22:12:42.172Z,0.87
2024-04-10T22:15:11.932Z,0.50
2024-04-10T22:17:59.969Z,0.27
2024-04-10T22:20:47.621Z,0.20
2024-04-10T22:23:34.374Z,0.43
2024-04-10T22:26:02.565Z,0.45
2024-04-10T22:28:30.553Z,0.30
2024-04-10T22:30:58.181Z,0.40
2024-04-10T22:33:26.521Z,0.10
2024-04-10T22:35:58.084Z,0.67
2024-04-10T22:38:25.984Z,0.30
2024-04-10T22:40:53.699Z,0.10
2024-04-10T22:43:22.019Z,0.43
2024-04-10T22:45:49.709Z,0.20
2024-04-10T22:48:17.864Z,0.10
2024-04-10T22:50:45.950Z,0.33
2024-04-10T22:53:14.167Z,0.47
2024-04-10T22:55:42.139Z,0.93
2024-04-10T22:58:10.413Z,0.43
2024-04-10T23:00:38.510Z,0.30
2024-04-10T23:03:06.824Z,0.60
2024-04-10T23:08:28.528Z,0.63
2024-04-10T23:10:55.726Z,0.20
2024-04-10T23:13:23.950Z,0.40
2024-04-10T23:15:51.672Z,0.40
2024-04-10T23:18:31.052Z,0.60
2024-04-10T23:21:08.227Z,0.30
2024-04-10T23:23:36.509Z,0.17
2024-04-10T23:26:04.914Z,0.33
2024-04-10T23:28:33.080Z,0.10
2024-04-10T23:31:01.449Z,0.10
2024-04-10T23:33:29.904Z,0.40
2024-04-10T23:35:58.090Z,0.10
2024-04-10T23:38:26.244Z,0.20
2024-04-10T23:40:54.438Z,0.83
2024-04-10T23:43:22.445Z,0.43
2024-04-10T23:45:56.962Z,0.13
2024-04-10T23:48:26.342Z,0.20
2024-04-10T23:50:54.939Z,0.50
2024-04-10T23:53:22.796Z,0.20
2024-04-10T23:55:50.696Z,0.47
2024-04-10T23:58:18.729Z,0.40
